Harrington Park, New Jersey
Current Conditions -  °F | °C
As of 6:51 PM on Wednesday 22 Oct 2014 (Local Time) from KTEB Reporting Station
Light Rain Light Rain  
Wind Chill: 53°   Ceiling: 1300
Heat Index: 53°   Visibility: 4mi
Dew Point: 48°   Wind: 10mph
Humidity: 83%   Direction: 10°N
Pressure: 29.82"   Gusts: 17mph
Location:  40.98°N, 73.98°W
Report Text: KTEB 222251Z 01009G15KT 4SM -RA BR BKN013 OVC021 12/09 A2982 RMK AO2 RAE2153B09 SLP098 P0003 T01170089 $
Loading
Personal Weather Stations






























Interactive Weather Map
Tropical Storm Tracking
New forecast layout! Learn more

10-Day Weather Forecast

Advertisements
Track Severe Weather on mobile